sensor_id;sensor_type;location;lat;lon;timestamp;pressure;altitude;pressure_sealevel;temperature
20730;BMP280;10526;50.850;12.928;2022-07-22T00:01:59;98297.97;;;17.67
20730;BMP280;10526;50.850;12.928;2022-07-22T00:06:22;98297.47;;;17.59
20730;BMP280;10526;50.850;12.928;2022-07-22T00:10:43;98291.22;;;17.63
20730;BMP280;10526;50.850;12.928;2022-07-22T00:15:07;98294.66;;;17.63
20730;BMP280;10526;50.850;12.928;2022-07-22T00:19:30;98286.72;;;17.59
20730;BMP280;10526;50.850;12.928;2022-07-22T00:23:52;98290.41;;;17.53
20730;BMP280;10526;50.850;12.928;2022-07-22T00:28:14;98285.97;;;17.46
20730;BMP280;10526;50.850;12.928;2022-07-22T00:32:37;98279.66;;;17.40
20730;BMP280;10526;50.850;12.928;2022-07-22T00:36:59;98286.44;;;17.32
20730;BMP280;10526;50.850;12.928;2022-07-22T00:41:22;98287.88;;;17.24
20730;BMP280;10526;50.850;12.928;2022-07-22T00:45:45;98296.63;;;17.15
20730;BMP280;10526;50.850;12.928;2022-07-22T00:50:08;98295.22;;;17.11
20730;BMP280;10526;50.850;12.928;2022-07-22T00:54:31;98292.53;;;17.11
20730;BMP280;10526;50.850;12.928;2022-07-22T00:58:57;98286.19;;;17.05
20730;BMP280;10526;50.850;12.928;2022-07-22T01:03:21;98291.03;;;16.97
20730;BMP280;10526;50.850;12.928;2022-07-22T01:07:43;98299.75;;;16.88
20730;BMP280;10526;50.850;12.928;2022-07-22T01:12:05;98306.19;;;16.78
20730;BMP280;10526;50.850;12.928;2022-07-22T01:16:28;98304.06;;;16.73
20730;BMP280;10526;50.850;12.928;2022-07-22T01:20:50;98311.78;;;16.71
20730;BMP280;10526;50.850;12.928;2022-07-22T01:25:12;98292.00;;;16.65
20730;BMP280;10526;50.850;12.928;2022-07-22T01:29:34;98294.56;;;16.56
20730;BMP280;10526;50.850;12.928;2022-07-22T01:33:57;98293.25;;;16.48
20730;BMP280;10526;50.850;12.928;2022-07-22T01:38:20;98287.31;;;16.40
20730;BMP280;10526;50.850;12.928;2022-07-22T01:42:42;98287.00;;;16.38
20730;BMP280;10526;50.850;12.928;2022-07-22T01:47:05;98285.94;;;16.35
20730;BMP280;10526;50.850;12.928;2022-07-22T01:51:28;98277.50;;;16.33
20730;BMP280;10526;50.850;12.928;2022-07-22T01:55:50;98279.56;;;16.29
20730;BMP280;10526;50.850;12.928;2022-07-22T02:00:14;98276.88;;;16.29
20730;BMP280;10526;50.850;12.928;2022-07-22T02:04:41;98278.50;;;16.27
20730;BMP280;10526;50.850;12.928;2022-07-22T02:09:05;98281.59;;;16.25
20730;BMP280;10526;50.850;12.928;2022-07-22T02:13:39;98273.72;;;16.18
20730;BMP280;10526;50.850;12.928;2022-07-22T02:18:14;98280.38;;;16.14
20730;BMP280;10526;50.850;12.928;2022-07-22T02:22:38;98291.31;;;16.06
20730;BMP280;10526;50.850;12.928;2022-07-22T02:27:01;98285.06;;;15.97
20730;BMP280;10526;50.850;12.928;2022-07-22T02:31:23;98280.63;;;15.90
20730;BMP280;10526;50.850;12.928;2022-07-22T02:35:46;98281.56;;;15.84
20730;BMP280;10526;50.850;12.928;2022-07-22T02:40:08;98279.72;;;15.80
20730;BMP280;10526;50.850;12.928;2022-07-22T02:44:31;98283.56;;;15.79
20730;BMP280;10526;50.850;12.928;2022-07-22T02:48:54;98285.59;;;15.75
20730;BMP280;10526;50.850;12.928;2022-07-22T02:53:17;98294.09;;;15.74
20730;BMP280;10526;50.850;12.928;2022-07-22T02:57:40;98293.06;;;15.68
20730;BMP280;10526;50.850;12.928;2022-07-22T03:02:02;98294.72;;;15.65
20730;BMP280;10526;50.850;12.928;2022-07-22T03:06:24;98296.38;;;15.59
20730;BMP280;10526;50.850;12.928;2022-07-22T03:11:10;98301.00;;;15.59
20730;BMP280;10526;50.850;12.928;2022-07-22T03:15:32;98310.91;;;15.62
20730;BMP280;10526;50.850;12.928;2022-07-22T03:19:55;98310.81;;;15.65
20730;BMP280;10526;50.850;12.928;2022-07-22T03:24:17;98296.22;;;15.66
20730;BMP280;10526;50.850;12.928;2022-07-22T03:28:39;98302.25;;;15.70
20730;BMP280;10526;50.850;12.928;2022-07-22T03:33:01;98307.50;;;15.74
20730;BMP280;10526;50.850;12.928;2022-07-22T03:37:27;98307.25;;;15.85
20730;BMP280;10526;50.850;12.928;2022-07-22T03:41:49;98310.38;;;16.12
20730;BMP280;10526;50.850;12.928;2022-07-22T03:46:11;98311.72;;;16.46
20730;BMP280;10526;50.850;12.928;2022-07-22T03:50:34;98313.31;;;16.85
20730;BMP280;10526;50.850;12.928;2022-07-22T03:54:56;98309.44;;;17.11
20730;BMP280;10526;50.850;12.928;2022-07-22T03:59:18;98306.53;;;17.66
20730;BMP280;10526;50.850;12.928;2022-07-22T04:03:41;98309.25;;;18.40
20730;BMP280;10526;50.850;12.928;2022-07-22T04:08:12;98318.66;;;18.98
20730;BMP280;10526;50.850;12.928;2022-07-22T04:12:37;98317.56;;;19.90
20730;BMP280;10526;50.850;12.928;2022-07-22T04:17:09;98316.63;;;20.87
20730;BMP280;10526;50.850;12.928;2022-07-22T04:21:37;98316.34;;;21.86
20730;BMP280;10526;50.850;12.928;2022-07-22T04:26:03;98317.53;;;22.79
20730;BMP280;10526;50.850;12.928;2022-07-22T04:30:27;98325.59;;;23.80
20730;BMP280;10526;50.850;12.928;2022-07-22T04:34:50;98330.16;;;24.69
20730;BMP280;10526;50.850;12.928;2022-07-22T04:39:12;98319.69;;;25.21
20730;BMP280;10526;50.850;12.928;2022-07-22T04:43:40;98333.91;;;25.53
20730;BMP280;10526;50.850;12.928;2022-07-22T04:48:03;98333.91;;;26.20
20730;BMP280;10526;50.850;12.928;2022-07-22T04:52:27;98328.72;;;26.91
20730;BMP280;10526;50.850;12.928;2022-07-22T04:56:50;98321.81;;;27.61
20730;BMP280;10526;50.850;12.928;2022-07-22T05:01:12;98331.31;;;28.57
20730;BMP280;10526;50.850;12.928;2022-07-22T05:05:36;98330.69;;;29.39
20730;BMP280;10526;50.850;12.928;2022-07-22T05:09:58;98324.66;;;30.26
20730;BMP280;10526;50.850;12.928;2022-07-22T05:14:23;98331.47;;;31.06
20730;BMP280;10526;50.850;12.928;2022-07-22T05:18:45;98325.09;;;31.81
20730;BMP280;10526;50.850;12.928;2022-07-22T05:23:09;98327.19;;;32.75
20730;BMP280;10526;50.850;12.928;2022-07-22T05:27:33;98339.38;;;33.48
20730;BMP280;10526;50.850;12.928;2022-07-22T05:31:56;98338.25;;;34.29
20730;BMP280;10526;50.850;12.928;2022-07-22T05:36:19;98335.91;;;35.49
20730;BMP280;10526;50.850;12.928;2022-07-22T05:40:42;98337.59;;;36.67
20730;BMP280;10526;50.850;12.928;2022-07-22T05:45:05;98345.06;;;37.59
20730;BMP280;10526;50.850;12.928;2022-07-22T05:49:28;98351.25;;;38.36
20730;BMP280;10526;50.850;12.928;2022-07-22T05:53:56;98355.38;;;38.97
20730;BMP280;10526;50.850;12.928;2022-07-22T05:58:18;98349.44;;;39.34
20730;BMP280;10526;50.850;12.928;2022-07-22T06:02:41;98349.34;;;39.76
20730;BMP280;10526;50.850;12.928;2022-07-22T06:07:07;98340.97;;;40.32
20730;BMP280;10526;50.850;12.928;2022-07-22T06:11:30;98349.81;;;40.64
20730;BMP280;10526;50.850;12.928;2022-07-22T06:15:52;98343.06;;;41.40
20730;BMP280;10526;50.850;12.928;2022-07-22T06:20:15;98338.75;;;41.90
20730;BMP280;10526;50.850;12.928;2022-07-22T06:24:37;98345.66;;;41.25
20730;BMP280;10526;50.850;12.928;2022-07-22T06:29:00;98355.69;;;42.19
20730;BMP280;10526;50.850;12.928;2022-07-22T06:33:22;98358.53;;;43.62
20730;BMP280;10526;50.850;12.928;2022-07-22T06:37:44;98355.66;;;43.76
20730;BMP280;10526;50.850;12.928;2022-07-22T06:42:33;98349.03;;;42.81
20730;BMP280;10526;50.850;12.928;2022-07-22T06:47:22;98349.28;;;42.30
20730;BMP280;10526;50.850;12.928;2022-07-22T06:51:46;98348.53;;;43.43
20730;BMP280;10526;50.850;12.928;2022-07-22T06:56:09;98349.06;;;41.23
20730;BMP280;10526;50.850;12.928;2022-07-22T07:00:37;98352.16;;;41.04
20730;BMP280;10526;50.850;12.928;2022-07-22T07:05:14;98346.06;;;39.68
20730;BMP280;10526;50.850;12.928;2022-07-22T07:09:41;98346.56;;;38.29
20730;BMP280;10526;50.850;12.928;2022-07-22T07:14:12;98350.53;;;40.29
20730;BMP280;10526;50.850;12.928;2022-07-22T07:18:36;98344.22;;;42.27
20730;BMP280;10526;50.850;12.928;2022-07-22T07:23:00;98340.06;;;40.88
20730;BMP280;10526;50.850;12.928;2022-07-22T07:27:27;98350.53;;;40.29
20730;BMP280;10526;50.850;12.928;2022-07-22T07:31:50;98340.50;;;42.93
20730;BMP280;10526;50.850;12.928;2022-07-22T07:36:12;98342.41;;;44.25
20730;BMP280;10526;50.850;12.928;2022-07-22T07:40:39;98342.13;;;45.03
20730;BMP280;10526;50.850;12.928;2022-07-22T07:45:02;98339.47;;;44.90
20730;BMP280;10526;50.850;12.928;2022-07-22T07:49:25;98336.56;;;44.37
20730;BMP280;10526;50.850;12.928;2022-07-22T07:53:48;98345.81;;;43.30
20730;BMP280;10526;50.850;12.928;2022-07-22T07:58:10;98340.09;;;40.41
20730;BMP280;10526;50.850;12.928;2022-07-22T08:02:35;98329.69;;;37.96
20730;BMP280;10526;50.850;12.928;2022-07-22T08:06:59;98332.16;;;37.15
20730;BMP280;10526;50.850;12.928;2022-07-22T08:11:22;98331.59;;;40.63
20730;BMP280;10526;50.850;12.928;2022-07-22T08:16:05;98327.13;;;42.91
20730;BMP280;10526;50.850;12.928;2022-07-22T08:20:32;98328.13;;;42.27
20730;BMP280;10526;50.850;12.928;2022-07-22T08:24:54;98341.59;;;44.74
20730;BMP280;10526;50.850;12.928;2022-07-22T08:29:22;98333.97;;;45.11
20730;BMP280;10526;50.850;12.928;2022-07-22T08:33:44;98327.50;;;43.29
20730;BMP280;10526;50.850;12.928;2022-07-22T08:38:07;98326.75;;;43.89
20730;BMP280;10526;50.850;12.928;2022-07-22T08:42:30;98333.88;;;44.07
20730;BMP280;10526;50.850;12.928;2022-07-22T08:46:52;98329.16;;;44.28
20730;BMP280;10526;50.850;12.928;2022-07-22T08:51:15;98326.34;;;42.07
20730;BMP280;10526;50.850;12.928;2022-07-22T08:55:49;98322.25;;;43.37
20730;BMP280;10526;50.850;12.928;2022-07-22T09:00:19;98330.19;;;46.39
20730;BMP280;10526;50.850;12.928;2022-07-22T09:05:03;98327.63;;;46.69
20730;BMP280;10526;50.850;12.928;2022-07-22T09:09:47;98327.53;;;45.27
20730;BMP280;10526;50.850;12.928;2022-07-22T09:14:49;98327.34;;;44.34
20730;BMP280;10526;50.850;12.928;2022-07-22T09:19:33;98319.66;;;44.03
20730;BMP280;10526;50.850;12.928;2022-07-22T09:24:34;98333.16;;;46.23
20730;BMP280;10526;50.850;12.928;2022-07-22T09:29:13;98325.56;;;44.76
20730;BMP280;10526;50.850;12.928;2022-07-22T09:34:00;98321.03;;;42.81
20730;BMP280;10526;50.850;12.928;2022-07-22T09:38:28;98317.41;;;43.37
20730;BMP280;10526;50.850;12.928;2022-07-22T09:43:02;98321.97;;;43.60
20730;BMP280;10526;50.850;12.928;2022-07-22T09:47:29;98311.63;;;41.93
20730;BMP280;10526;50.850;12.928;2022-07-22T09:52:18;98324.97;;;44.62
20730;BMP280;10526;50.850;12.928;2022-07-22T09:56:59;98319.44;;;44.13
20730;BMP280;10526;50.850;12.928;2022-07-22T10:01:21;98311.66;;;44.80
20730;BMP280;10526;50.850;12.928;2022-07-22T10:05:45;98306.91;;;45.02
20730;BMP280;10526;50.850;12.928;2022-07-22T10:10:11;98312.41;;;46.56
20730;BMP280;10526;50.850;12.928;2022-07-22T10:14:35;98320.63;;;46.93
20730;BMP280;10526;50.850;12.928;2022-07-22T10:18:59;98311.59;;;44.78
20730;BMP280;10526;50.850;12.928;2022-07-22T10:23:23;98302.81;;;42.96
20730;BMP280;10526;50.850;12.928;2022-07-22T10:28:00;98297.78;;;43.08
20730;BMP280;10526;50.850;12.928;2022-07-22T10:32:24;98298.19;;;42.73
20730;BMP280;10526;50.850;12.928;2022-07-22T10:36:46;98306.44;;;44.22
20730;BMP280;10526;50.850;12.928;2022-07-22T10:41:09;98302.97;;;42.70
20730;BMP280;10526;50.850;12.928;2022-07-22T10:46:06;98297.22;;;41.59
20730;BMP280;10526;50.850;12.928;2022-07-22T10:55:19;98304.38;;;43.44
20730;BMP280;10526;50.850;12.928;2022-07-22T10:59:54;98305.56;;;45.03
20730;BMP280;10526;50.850;12.928;2022-07-22T11:04:23;98310.88;;;45.50
20730;BMP280;10526;50.850;12.928;2022-07-22T11:08:49;98296.28;;;41.55
20730;BMP280;10526;50.850;12.928;2022-07-22T11:13:12;98284.47;;;39.43
20730;BMP280;10526;50.850;12.928;2022-07-22T11:17:35;98278.31;;;39.56
20730;BMP280;10526;50.850;12.928;2022-07-22T11:22:10;98276.78;;;38.77
20730;BMP280;10526;50.850;12.928;2022-07-22T11:26:45;98259.34;;;36.98
20730;BMP280;10526;50.850;12.928;2022-07-22T11:31:10;98254.50;;;35.45
20730;BMP280;10526;50.850;12.928;2022-07-22T11:35:32;98248.78;;;34.02
20730;BMP280;10526;50.850;12.928;2022-07-22T11:40:06;98240.16;;;33.12
20730;BMP280;10526;50.850;12.928;2022-07-22T11:44:31;98238.16;;;32.74
20730;BMP280;10526;50.850;12.928;2022-07-22T11:48:54;98232.56;;;32.36
20730;BMP280;10526;50.850;12.928;2022-07-22T11:53:18;98231.63;;;31.83
20730;BMP280;10526;50.850;12.928;2022-07-22T11:57:48;98223.00;;;31.22
20730;BMP280;10526;50.850;12.928;2022-07-22T12:02:10;98224.41;;;30.40
20730;BMP280;10526;50.850;12.928;2022-07-22T12:06:38;98226.41;;;30.18
20730;BMP280;10526;50.850;12.928;2022-07-22T12:11:01;98219.31;;;30.10
20730;BMP280;10526;50.850;12.928;2022-07-22T12:15:25;98213.44;;;29.66
20730;BMP280;10526;50.850;12.928;2022-07-22T12:20:11;98200.47;;;28.77
20730;BMP280;10526;50.850;12.928;2022-07-22T12:24:43;98202.56;;;28.70
20730;BMP280;10526;50.850;12.928;2022-07-22T12:29:26;98194.47;;;29.10
20730;BMP280;10526;50.850;12.928;2022-07-22T12:33:49;98197.69;;;29.54
20730;BMP280;10526;50.850;12.928;2022-07-22T12:38:11;98196.94;;;29.53
20730;BMP280;10526;50.850;12.928;2022-07-22T12:46:59;98189.41;;;29.14
20730;BMP280;10526;50.850;12.928;2022-07-22T12:51:21;98172.66;;;28.86
20730;BMP280;10526;50.850;12.928;2022-07-22T12:55:55;98182.09;;;29.03
20730;BMP280;10526;50.850;12.928;2022-07-22T13:00:24;98177.50;;;29.25
20730;BMP280;10526;50.850;12.928;2022-07-22T13:04:46;98177.00;;;29.39
20730;BMP280;10526;50.850;12.928;2022-07-22T13:09:09;98171.38;;;29.45
20730;BMP280;10526;50.850;12.928;2022-07-22T13:13:39;98162.63;;;29.20
20730;BMP280;10526;50.850;12.928;2022-07-22T13:18:01;98157.78;;;29.26
20730;BMP280;10526;50.850;12.928;2022-07-22T13:22:23;98157.13;;;29.33
20730;BMP280;10526;50.850;12.928;2022-07-22T13:26:45;98139.91;;;28.93
20730;BMP280;10526;50.850;12.928;2022-07-22T13:31:09;98148.63;;;28.79
20730;BMP280;10526;50.850;12.928;2022-07-22T13:35:31;98151.78;;;28.83
20730;BMP280;10526;50.850;12.928;2022-07-22T13:39:53;98149.88;;;28.78
20730;BMP280;10526;50.850;12.928;2022-07-22T13:44:15;98139.06;;;28.98
20730;BMP280;10526;50.850;12.928;2022-07-22T13:48:38;98130.97;;;29.19
20730;BMP280;10526;50.850;12.928;2022-07-22T13:53:00;98132.25;;;29.31
20730;BMP280;10526;50.850;12.928;2022-07-22T13:57:22;98131.22;;;29.34
20730;BMP280;10526;50.850;12.928;2022-07-22T14:01:45;98134.78;;;29.42
20730;BMP280;10526;50.850;12.928;2022-07-22T14:06:07;98127.81;;;29.55
20730;BMP280;10526;50.850;12.928;2022-07-22T14:10:31;98125.06;;;29.55
20730;BMP280;10526;50.850;12.928;2022-07-22T14:14:53;98117.84;;;28.99
20730;BMP280;10526;50.850;12.928;2022-07-22T14:19:16;98114.03;;;28.89
20730;BMP280;10526;50.850;12.928;2022-07-22T14:23:39;98121.41;;;28.94
20730;BMP280;10526;50.850;12.928;2022-07-22T14:28:01;98105.19;;;28.96
20730;BMP280;10526;50.850;12.928;2022-07-22T14:32:42;98117.03;;;29.17
20730;BMP280;10526;50.850;12.928;2022-07-22T14:37:04;98112.09;;;29.29
20730;BMP280;10526;50.850;12.928;2022-07-22T14:41:27;98114.75;;;29.34
20730;BMP280;10526;50.850;12.928;2022-07-22T14:45:49;98108.25;;;29.19
20730;BMP280;10526;50.850;12.928;2022-07-22T14:50:11;98106.38;;;29.14
20730;BMP280;10526;50.850;12.928;2022-07-22T14:54:34;98103.25;;;29.23
20730;BMP280;10526;50.850;12.928;2022-07-22T14:58:56;98106.81;;;29.31
20730;BMP280;10526;50.850;12.928;2022-07-22T15:03:18;98104.38;;;29.27
20730;BMP280;10526;50.850;12.928;2022-07-22T15:07:42;98104.16;;;29.12
20730;BMP280;10526;50.850;12.928;2022-07-22T15:12:05;98095.78;;;28.91
20730;BMP280;10526;50.850;12.928;2022-07-22T15:16:47;98091.34;;;28.88
20730;BMP280;10526;50.850;12.928;2022-07-22T15:21:09;98088.72;;;28.83
20730;BMP280;10526;50.850;12.928;2022-07-22T15:25:33;98085.31;;;28.77
20730;BMP280;10526;50.850;12.928;2022-07-22T15:29:55;98086.38;;;28.73
20730;BMP280;10526;50.850;12.928;2022-07-22T15:34:25;98090.75;;;28.50
20730;BMP280;10526;50.850;12.928;2022-07-22T15:38:47;98081.78;;;28.31
20730;BMP280;10526;50.850;12.928;2022-07-22T15:43:09;98070.94;;;28.07
20730;BMP280;10526;50.850;12.928;2022-07-22T15:47:31;98075.25;;;28.02
20730;BMP280;10526;50.850;12.928;2022-07-22T15:51:53;98060.97;;;28.09
20730;BMP280;10526;50.850;12.928;2022-07-22T15:56:15;98056.28;;;28.04
20730;BMP280;10526;50.850;12.928;2022-07-22T16:00:37;98060.16;;;27.95
20730;BMP280;10526;50.850;12.928;2022-07-22T16:04:59;98055.25;;;27.88
20730;BMP280;10526;50.850;12.928;2022-07-22T16:09:21;98053.19;;;27.94
20730;BMP280;10526;50.850;12.928;2022-07-22T16:13:47;98045.66;;;28.00
20730;BMP280;10526;50.850;12.928;2022-07-22T16:18:10;98052.00;;;28.09
20730;BMP280;10526;50.850;12.928;2022-07-22T16:22:33;98049.44;;;27.97
20730;BMP280;10526;50.850;12.928;2022-07-22T16:26:55;98052.91;;;27.98
20730;BMP280;10526;50.850;12.928;2022-07-22T16:31:18;98051.03;;;28.06
20730;BMP280;10526;50.850;12.928;2022-07-22T16:35:43;98039.13;;;28.03
20730;BMP280;10526;50.850;12.928;2022-07-22T16:40:06;98045.72;;;27.95
20730;BMP280;10526;50.850;12.928;2022-07-22T16:44:31;98042.13;;;27.87
20730;BMP280;10526;50.850;12.928;2022-07-22T16:48:53;98033.00;;;27.79
20730;BMP280;10526;50.850;12.928;2022-07-22T16:53:15;98035.50;;;27.77
20730;BMP280;10526;50.850;12.928;2022-07-22T16:57:38;98034.13;;;27.70
20730;BMP280;10526;50.850;12.928;2022-07-22T17:02:00;98032.16;;;27.65
20730;BMP280;10526;50.850;12.928;2022-07-22T17:06:23;98027.88;;;27.51
20730;BMP280;10526;50.850;12.928;2022-07-22T17:10:45;98022.22;;;27.43
20730;BMP280;10526;50.850;12.928;2022-07-22T17:15:08;98012.66;;;27.37
20730;BMP280;10526;50.850;12.928;2022-07-22T17:19:35;98015.41;;;27.31
20730;BMP280;10526;50.850;12.928;2022-07-22T17:23:57;98007.06;;;27.23
20730;BMP280;10526;50.850;12.928;2022-07-22T17:28:19;98014.81;;;27.19
20730;BMP280;10526;50.850;12.928;2022-07-22T17:32:42;98006.28;;;27.04
20730;BMP280;10526;50.850;12.928;2022-07-22T17:37:04;98013.56;;;26.96
20730;BMP280;10526;50.850;12.928;2022-07-22T17:41:26;98010.97;;;26.79
20730;BMP280;10526;50.850;12.928;2022-07-22T17:45:48;98008.41;;;26.62
20730;BMP280;10526;50.850;12.928;2022-07-22T17:50:10;98005.81;;;26.46
20730;BMP280;10526;50.850;12.928;2022-07-22T17:54:33;98010.16;;;26.30
20730;BMP280;10526;50.850;12.928;2022-07-22T17:58:56;98009.75;;;26.15
20730;BMP280;10526;50.850;12.928;2022-07-22T18:03:19;98002.41;;;25.99
20730;BMP280;10526;50.850;12.928;2022-07-22T18:07:47;98004.47;;;25.81
20730;BMP280;10526;50.850;12.928;2022-07-22T18:12:10;98000.06;;;25.67
20730;BMP280;10526;50.850;12.928;2022-07-22T18:16:32;98008.31;;;25.56
20730;BMP280;10526;50.850;12.928;2022-07-22T18:20:54;98008.13;;;25.43
20730;BMP280;10526;50.850;12.928;2022-07-22T18:25:16;98006.16;;;25.26
20730;BMP280;10526;50.850;12.928;2022-07-22T18:29:39;98004.25;;;25.10
20730;BMP280;10526;50.850;12.928;2022-07-22T18:34:01;98012.91;;;24.98
20730;BMP280;10526;50.850;12.928;2022-07-22T18:38:23;98004.78;;;24.81
20730;BMP280;10526;50.850;12.928;2022-07-22T18:42:45;98012.19;;;24.69
20730;BMP280;10526;50.850;12.928;2022-07-22T18:47:07;98009.94;;;24.56
20730;BMP280;10526;50.850;12.928;2022-07-22T18:51:29;98021.09;;;24.42
20730;BMP280;10526;50.850;12.928;2022-07-22T18:55:51;98017.84;;;24.26
20730;BMP280;10526;50.850;12.928;2022-07-22T19:00:13;98020.03;;;24.11
20730;BMP280;10526;50.850;12.928;2022-07-22T19:04:36;98020.47;;;23.99
20730;BMP280;10526;50.850;12.928;2022-07-22T19:08:59;98027.84;;;23.81
20730;BMP280;10526;50.850;12.928;2022-07-22T19:13:22;98037.19;;;23.69
20730;BMP280;10526;50.850;12.928;2022-07-22T19:17:44;98036.84;;;23.56
20730;BMP280;10526;50.850;12.928;2022-07-22T19:22:07;98044.94;;;23.45
20730;BMP280;10526;50.850;12.928;2022-07-22T19:26:29;98039.44;;;23.34
20730;BMP280;10526;50.850;12.928;2022-07-22T19:30:53;98053.16;;;23.19
20730;BMP280;10526;50.850;12.928;2022-07-22T19:35:15;98051.34;;;23.05
20730;BMP280;10526;50.850;12.928;2022-07-22T19:39:37;98061.59;;;22.89
20730;BMP280;10526;50.850;12.928;2022-07-22T19:43:59;98061.72;;;22.75
20730;BMP280;10526;50.850;12.928;2022-07-22T19:48:22;98061.13;;;22.65
20730;BMP280;10526;50.850;12.928;2022-07-22T19:52:44;98067.03;;;22.63
20730;BMP280;10526;50.850;12.928;2022-07-22T19:57:06;98070.09;;;22.51
20730;BMP280;10526;50.850;12.928;2022-07-22T20:01:29;98075.88;;;22.38
20730;BMP280;10526;50.850;12.928;2022-07-22T20:05:52;98076.44;;;22.22
20730;BMP280;10526;50.850;12.928;2022-07-22T20:10:14;98074.41;;;22.17
20730;BMP280;10526;50.850;12.928;2022-07-22T20:14:40;98086.97;;;22.14
20730;BMP280;10526;50.850;12.928;2022-07-22T20:19:03;98092.03;;;22.07
20730;BMP280;10526;50.850;12.928;2022-07-22T20:23:26;98099.28;;;21.95
20730;BMP280;10526;50.850;12.928;2022-07-22T20:27:48;98107.44;;;21.80
20730;BMP280;10526;50.850;12.928;2022-07-22T20:32:10;98123.00;;;21.65
20730;BMP280;10526;50.850;12.928;2022-07-22T20:36:32;98127.69;;;21.50
20730;BMP280;10526;50.850;12.928;2022-07-22T20:40:54;98124.72;;;21.33
20730;BMP280;10526;50.850;12.928;2022-07-22T20:45:16;98125.00;;;21.20
20730;BMP280;10526;50.850;12.928;2022-07-22T20:49:39;98136.09;;;21.08
20730;BMP280;10526;50.850;12.928;2022-07-22T20:54:01;98159.97;;;20.94
20730;BMP280;10526;50.850;12.928;2022-07-22T20:58:24;98152.72;;;20.86
20730;BMP280;10526;50.850;12.928;2022-07-22T21:02:46;98147.53;;;20.73
20730;BMP280;10526;50.850;12.928;2022-07-22T21:07:09;98150.75;;;20.62
20730;BMP280;10526;50.850;12.928;2022-07-22T21:11:31;98150.81;;;20.53
20730;BMP280;10526;50.850;12.928;2022-07-22T21:15:53;98141.72;;;20.42
20730;BMP280;10526;50.850;12.928;2022-07-22T21:20:15;98148.38;;;20.31
20730;BMP280;10526;50.850;12.928;2022-07-22T21:24:37;98145.00;;;20.22
20730;BMP280;10526;50.850;12.928;2022-07-22T21:28:59;98155.84;;;20.13
20730;BMP280;10526;50.850;12.928;2022-07-22T21:33:22;98160.97;;;20.01
20730;BMP280;10526;50.850;12.928;2022-07-22T21:37:46;98169.13;;;19.92
20730;BMP280;10526;50.850;12.928;2022-07-22T21:42:08;98166.78;;;19.85
20730;BMP280;10526;50.850;12.928;2022-07-22T21:46:31;98166.50;;;19.74
20730;BMP280;10526;50.850;12.928;2022-07-22T21:50:53;98151.81;;;19.66
20730;BMP280;10526;50.850;12.928;2022-07-22T21:55:15;98150.94;;;19.60
20730;BMP280;10526;50.850;12.928;2022-07-22T21:59:37;98138.63;;;19.59
20730;BMP280;10526;50.850;12.928;2022-07-22T22:03:59;98143.16;;;19.53
20730;BMP280;10526;50.850;12.928;2022-07-22T22:08:21;98162.22;;;19.49
20730;BMP280;10526;50.850;12.928;2022-07-22T22:12:43;98167.94;;;19.42
20730;BMP280;10526;50.850;12.928;2022-07-22T22:17:05;98147.69;;;19.28
20730;BMP280;10526;50.850;12.928;2022-07-22T22:21:28;98141.97;;;19.17
20730;BMP280;10526;50.850;12.928;2022-07-22T22:25:51;98126.84;;;19.10
20730;BMP280;10526;50.850;12.928;2022-07-22T22:30:14;98113.22;;;19.14
20730;BMP280;10526;50.850;12.928;2022-07-22T22:34:37;98106.28;;;19.13
20730;BMP280;10526;50.850;12.928;2022-07-22T22:39:00;98086.53;;;19.07
20730;BMP280;10526;50.850;12.928;2022-07-22T22:43:24;98082.50;;;19.02
20730;BMP280;10526;50.850;12.928;2022-07-22T22:47:46;98100.91;;;18.95
20730;BMP280;10526;50.850;12.928;2022-07-22T22:52:09;98098.53;;;18.88
20730;BMP280;10526;50.850;12.928;2022-07-22T22:56:31;98087.88;;;18.84
20730;BMP280;10526;50.850;12.928;2022-07-22T23:00:54;98080.22;;;18.82
20730;BMP280;10526;50.850;12.928;2022-07-22T23:05:15;98080.38;;;18.79
20730;BMP280;10526;50.850;12.928;2022-07-22T23:09:38;98070.63;;;18.72
20730;BMP280;10526;50.850;12.928;2022-07-22T23:14:00;98069.13;;;18.62
20730;BMP280;10526;50.850;12.928;2022-07-22T23:18:22;98071.38;;;18.55
20730;BMP280;10526;50.850;12.928;2022-07-22T23:22:51;98076.75;;;18.45
20730;BMP280;10526;50.850;12.928;2022-07-22T23:27:13;98078.09;;;18.41
20730;BMP280;10526;50.850;12.928;2022-07-22T23:31:35;98071.78;;;18.35
20730;BMP280;10526;50.850;12.928;2022-07-22T23:35:57;98078.38;;;18.34
20730;BMP280;10526;50.850;12.928;2022-07-22T23:40:20;98073.88;;;18.31
20730;BMP280;10526;50.850;12.928;2022-07-22T23:44:42;98083.47;;;18.23
20730;BMP280;10526;50.850;12.928;2022-07-22T23:49:04;98089.72;;;18.10
20730;BMP280;10526;50.850;12.928;2022-07-22T23:53:27;98086.97;;;18.01
20730;BMP280;10526;50.850;12.928;2022-07-22T23:57:50;98091.75;;;17.97
